sensor_id;sensor_type;location;lat;lon;timestamp;temperature;humidity
27026;DHT22;14565;48.626;8.978;2023-05-10T00:01:23;13.50;99.90
27026;DHT22;14565;48.626;8.978;2023-05-10T00:03:49;13.50;99.90
27026;DHT22;14565;48.626;8.978;2023-05-10T00:06:15;13.50;99.90
27026;DHT22;14565;48.626;8.978;2023-05-10T00:08:40;13.60;99.90
27026;DHT22;14565;48.626;8.978;2023-05-10T00:11:06;13.50;99.90
27026;DHT22;14565;48.626;8.978;2023-05-10T00:13:32;13.60;99.90
27026;DHT22;14565;48.626;8.978;2023-05-10T00:15:58;13.50;99.90
27026;DHT22;14565;48.626;8.978;2023-05-10T00:18:24;13.50;99.90
27026;DHT22;14565;48.626;8.978;2023-05-10T00:20:49;13.40;99.90
27026;DHT22;14565;48.626;8.978;2023-05-10T00:23:15;13.40;99.90
27026;DHT22;14565;48.626;8.978;2023-05-10T00:25:41;13.30;99.90
27026;DHT22;14565;48.626;8.978;2023-05-10T00:28:06;13.30;99.90
27026;DHT22;14565;48.626;8.978;2023-05-10T00:30:32;13.30;99.90
27026;DHT22;14565;48.626;8.978;2023-05-10T00:32:57;13.20;99.90
27026;DHT22;14565;48.626;8.978;2023-05-10T00:35:23;13.30;99.90
27026;DHT22;14565;48.626;8.978;2023-05-10T00:37:49;13.20;99.90
27026;DHT22;14565;48.626;8.978;2023-05-10T00:40:15;13.20;99.90
27026;DHT22;14565;48.626;8.978;2023-05-10T00:42:40;13.20;99.90
27026;DHT22;14565;48.626;8.978;2023-05-10T00:45:07;13.20;99.90
27026;DHT22;14565;48.626;8.978;2023-05-10T00:47:32;13.20;99.90
27026;DHT22;14565;48.626;8.978;2023-05-10T00:49:59;13.20;99.90
27026;DHT22;14565;48.626;8.978;2023-05-10T00:52:26;13.20;99.90
27026;DHT22;14565;48.626;8.978;2023-05-10T00:54:52;13.00;99.90
27026;DHT22;14565;48.626;8.978;2023-05-10T00:57:18;13.10;99.90
27026;DHT22;14565;48.626;8.978;2023-05-10T00:59:44;13.00;99.90
27026;DHT22;14565;48.626;8.978;2023-05-10T01:02:11;13.10;99.90
27026;DHT22;14565;48.626;8.978;2023-05-10T01:04:37;13.10;99.90
27026;DHT22;14565;48.626;8.978;2023-05-10T01:07:04;13.10;99.90
27026;DHT22;14565;48.626;8.978;2023-05-10T01:09:29;13.10;99.90
27026;DHT22;14565;48.626;8.978;2023-05-10T01:11:56;13.00;99.90
27026;DHT22;14565;48.626;8.978;2023-05-10T01:14:21;13.00;99.90
27026;DHT22;14565;48.626;8.978;2023-05-10T01:16:49;13.00;99.90
27026;DHT22;14565;48.626;8.978;2023-05-10T01:19:24;13.00;99.90
27026;DHT22;14565;48.626;8.978;2023-05-10T01:38:51;12.80;99.90
27026;DHT22;14565;48.626;8.978;2023-05-10T01:46:36;12.70;99.90
27026;DHT22;14565;48.626;8.978;2023-05-10T01:49:03;12.70;99.90
27026;DHT22;14565;48.626;8.978;2023-05-10T01:51:47;12.60;99.90
27026;DHT22;14565;48.626;8.978;2023-05-10T01:54:16;12.60;99.90
27026;DHT22;14565;48.626;8.978;2023-05-10T01:56:44;12.60;99.90
27026;DHT22;14565;48.626;8.978;2023-05-10T01:59:17;12.60;99.90
27026;DHT22;14565;48.626;8.978;2023-05-10T02:01:45;12.60;99.90
27026;DHT22;14565;48.626;8.978;2023-05-10T02:04:14;12.50;99.90
27026;DHT22;14565;48.626;8.978;2023-05-10T02:06:41;12.50;99.90
27026;DHT22;14565;48.626;8.978;2023-05-10T02:09:09;12.50;99.90
27026;DHT22;14565;48.626;8.978;2023-05-10T02:11:37;12.60;99.90
27026;DHT22;14565;48.626;8.978;2023-05-10T02:14:03;12.70;99.90
27026;DHT22;14565;48.626;8.978;2023-05-10T02:16:31;12.60;99.90
27026;DHT22;14565;48.626;8.978;2023-05-10T02:18:57;12.60;99.90
27026;DHT22;14565;48.626;8.978;2023-05-10T02:21:24;12.60;99.90
27026;DHT22;14565;48.626;8.978;2023-05-10T02:23:52;12.50;99.90
27026;DHT22;14565;48.626;8.978;2023-05-10T02:26:20;12.50;99.90
27026;DHT22;14565;48.626;8.978;2023-05-10T02:28:47;12.40;99.90
27026;DHT22;14565;48.626;8.978;2023-05-10T02:31:15;12.40;99.90
27026;DHT22;14565;48.626;8.978;2023-05-10T02:33:41;12.40;99.90
27026;DHT22;14565;48.626;8.978;2023-05-10T02:36:09;12.30;99.90
27026;DHT22;14565;48.626;8.978;2023-05-10T02:38:36;12.30;99.90
27026;DHT22;14565;48.626;8.978;2023-05-10T02:41:02;12.30;99.90
27026;DHT22;14565;48.626;8.978;2023-05-10T02:43:31;12.30;99.90
27026;DHT22;14565;48.626;8.978;2023-05-10T02:45:57;12.30;99.90
27026;DHT22;14565;48.626;8.978;2023-05-10T02:48:23;12.30;99.90
27026;DHT22;14565;48.626;8.978;2023-05-10T02:50:50;12.30;99.90
27026;DHT22;14565;48.626;8.978;2023-05-10T02:53:22;12.40;99.90
27026;DHT22;14565;48.626;8.978;2023-05-10T02:55:50;12.30;99.90
27026;DHT22;14565;48.626;8.978;2023-05-10T02:58:17;12.30;99.90
27026;DHT22;14565;48.626;8.978;2023-05-10T03:00:44;12.30;99.90
27026;DHT22;14565;48.626;8.978;2023-05-10T03:03:10;12.20;99.90
27026;DHT22;14565;48.626;8.978;2023-05-10T03:05:36;12.20;99.90
27026;DHT22;14565;48.626;8.978;2023-05-10T03:08:02;12.20;99.90
27026;DHT22;14565;48.626;8.978;2023-05-10T03:10:30;12.20;99.90
27026;DHT22;14565;48.626;8.978;2023-05-10T03:13:28;12.20;99.90
27026;DHT22;14565;48.626;8.978;2023-05-10T03:18:29;12.20;99.90
27026;DHT22;14565;48.626;8.978;2023-05-10T03:21:03;12.20;99.90
27026;DHT22;14565;48.626;8.978;2023-05-10T03:23:40;12.20;99.90
27026;DHT22;14565;48.626;8.978;2023-05-10T03:26:07;12.20;99.90
27026;DHT22;14565;48.626;8.978;2023-05-10T03:28:35;12.20;99.90
27026;DHT22;14565;48.626;8.978;2023-05-10T03:31:02;12.20;99.90
27026;DHT22;14565;48.626;8.978;2023-05-10T03:33:28;12.10;99.90
27026;DHT22;14565;48.626;8.978;2023-05-10T03:35:54;12.10;99.90
27026;DHT22;14565;48.626;8.978;2023-05-10T03:38:20;12.10;99.90
27026;DHT22;14565;48.626;8.978;2023-05-10T03:40:45;12.10;99.90
27026;DHT22;14565;48.626;8.978;2023-05-10T03:43:11;12.20;99.90
27026;DHT22;14565;48.626;8.978;2023-05-10T03:45:37;12.20;99.90
27026;DHT22;14565;48.626;8.978;2023-05-10T03:48:03;12.20;99.90
27026;DHT22;14565;48.626;8.978;2023-05-10T03:50:29;12.10;99.90
27026;DHT22;14565;48.626;8.978;2023-05-10T03:52:54;12.10;99.90
27026;DHT22;14565;48.626;8.978;2023-05-10T03:55:20;12.10;99.90
27026;DHT22;14565;48.626;8.978;2023-05-10T03:57:46;12.00;99.90
27026;DHT22;14565;48.626;8.978;2023-05-10T04:00:14;12.10;99.90
27026;DHT22;14565;48.626;8.978;2023-05-10T04:02:40;12.10;99.90
27026;DHT22;14565;48.626;8.978;2023-05-10T04:05:06;12.10;99.90
27026;DHT22;14565;48.626;8.978;2023-05-10T04:07:32;12.20;99.90
27026;DHT22;14565;48.626;8.978;2023-05-10T04:09:58;12.20;99.90
27026;DHT22;14565;48.626;8.978;2023-05-10T04:12:23;12.20;99.90
27026;DHT22;14565;48.626;8.978;2023-05-10T04:14:49;12.30;99.90
27026;DHT22;14565;48.626;8.978;2023-05-10T04:17:14;12.20;99.90
27026;DHT22;14565;48.626;8.978;2023-05-10T04:19:40;12.30;99.90
27026;DHT22;14565;48.626;8.978;2023-05-10T04:22:06;12.20;99.90
27026;DHT22;14565;48.626;8.978;2023-05-10T04:24:31;12.20;99.90
27026;DHT22;14565;48.626;8.978;2023-05-10T04:26:57;12.30;99.90
27026;DHT22;14565;48.626;8.978;2023-05-10T04:29:22;12.30;99.90
27026;DHT22;14565;48.626;8.978;2023-05-10T04:31:48;12.20;99.90
27026;DHT22;14565;48.626;8.978;2023-05-10T04:34:14;12.30;99.90
27026;DHT22;14565;48.626;8.978;2023-05-10T04:36:40;12.30;99.90
27026;DHT22;14565;48.626;8.978;2023-05-10T04:39:05;12.30;99.90
27026;DHT22;14565;48.626;8.978;2023-05-10T04:41:31;12.30;99.90
27026;DHT22;14565;48.626;8.978;2023-05-10T04:43:57;12.40;99.90
27026;DHT22;14565;48.626;8.978;2023-05-10T04:46:23;12.30;99.90
27026;DHT22;14565;48.626;8.978;2023-05-10T04:48:50;12.30;99.90
27026;DHT22;14565;48.626;8.978;2023-05-10T04:51:16;12.40;99.90
27026;DHT22;14565;48.626;8.978;2023-05-10T04:53:42;12.30;99.90
27026;DHT22;14565;48.626;8.978;2023-05-10T04:56:07;12.40;99.90
27026;DHT22;14565;48.626;8.978;2023-05-10T04:58:33;12.30;99.90
27026;DHT22;14565;48.626;8.978;2023-05-10T05:01:05;12.30;99.90
27026;DHT22;14565;48.626;8.978;2023-05-10T05:03:32;12.30;99.90
27026;DHT22;14565;48.626;8.978;2023-05-10T05:05:58;12.40;99.90
27026;DHT22;14565;48.626;8.978;2023-05-10T05:08:24;12.40;99.90
27026;DHT22;14565;48.626;8.978;2023-05-10T05:10:50;12.30;99.90
27026;DHT22;14565;48.626;8.978;2023-05-10T05:13:16;12.40;99.90
27026;DHT22;14565;48.626;8.978;2023-05-10T05:15:41;12.30;99.90
27026;DHT22;14565;48.626;8.978;2023-05-10T05:18:07;12.40;99.90
27026;DHT22;14565;48.626;8.978;2023-05-10T05:20:33;12.30;99.90
27026;DHT22;14565;48.626;8.978;2023-05-10T05:23:02;12.40;99.90
27026;DHT22;14565;48.626;8.978;2023-05-10T05:25:27;12.40;99.90
27026;DHT22;14565;48.626;8.978;2023-05-10T05:27:53;12.40;99.90
27026;DHT22;14565;48.626;8.978;2023-05-10T05:30:19;12.40;99.90
27026;DHT22;14565;48.626;8.978;2023-05-10T05:32:45;12.40;99.90
27026;DHT22;14565;48.626;8.978;2023-05-10T05:35:12;12.30;99.90
27026;DHT22;14565;48.626;8.978;2023-05-10T05:37:38;12.30;99.90
27026;DHT22;14565;48.626;8.978;2023-05-10T05:40:04;12.40;99.90
27026;DHT22;14565;48.626;8.978;2023-05-10T05:42:31;12.50;99.90
27026;DHT22;14565;48.626;8.978;2023-05-10T05:44:57;12.50;99.90
27026;DHT22;14565;48.626;8.978;2023-05-10T05:47:22;12.50;99.90
27026;DHT22;14565;48.626;8.978;2023-05-10T05:49:48;12.50;99.90
27026;DHT22;14565;48.626;8.978;2023-05-10T05:52:17;12.50;99.90
27026;DHT22;14565;48.626;8.978;2023-05-10T05:54:43;12.60;99.90
27026;DHT22;14565;48.626;8.978;2023-05-10T05:57:09;12.60;99.90
27026;DHT22;14565;48.626;8.978;2023-05-10T05:59:34;12.60;99.90
27026;DHT22;14565;48.626;8.978;2023-05-10T06:02:00;12.50;99.90
27026;DHT22;14565;48.626;8.978;2023-05-10T06:04:26;12.60;99.90
27026;DHT22;14565;48.626;8.978;2023-05-10T06:06:51;12.60;99.90
27026;DHT22;14565;48.626;8.978;2023-05-10T06:09:17;12.60;99.90
27026;DHT22;14565;48.626;8.978;2023-05-10T06:11:43;12.50;99.90
27026;DHT22;14565;48.626;8.978;2023-05-10T06:14:08;12.50;99.90
27026;DHT22;14565;48.626;8.978;2023-05-10T06:16:34;12.60;99.90
27026;DHT22;14565;48.626;8.978;2023-05-10T06:19:00;12.70;99.90
27026;DHT22;14565;48.626;8.978;2023-05-10T06:21:26;12.70;99.90
27026;DHT22;14565;48.626;8.978;2023-05-10T06:23:51;12.70;99.90
27026;DHT22;14565;48.626;8.978;2023-05-10T06:26:17;12.80;99.90
27026;DHT22;14565;48.626;8.978;2023-05-10T06:28:43;12.90;99.90
27026;DHT22;14565;48.626;8.978;2023-05-10T06:31:08;12.90;99.90
27026;DHT22;14565;48.626;8.978;2023-05-10T06:33:34;12.90;99.90
27026;DHT22;14565;48.626;8.978;2023-05-10T06:36:00;13.10;99.90
27026;DHT22;14565;48.626;8.978;2023-05-10T06:38:26;13.20;99.90
27026;DHT22;14565;48.626;8.978;2023-05-10T06:40:51;13.20;99.90
27026;DHT22;14565;48.626;8.978;2023-05-10T06:43:17;13.20;99.90
27026;DHT22;14565;48.626;8.978;2023-05-10T06:45:43;13.20;99.90
27026;DHT22;14565;48.626;8.978;2023-05-10T06:48:08;13.20;99.90
27026;DHT22;14565;48.626;8.978;2023-05-10T06:50:34;13.20;99.90
27026;DHT22;14565;48.626;8.978;2023-05-10T06:53:00;13.30;99.90
27026;DHT22;14565;48.626;8.978;2023-05-10T06:55:27;13.30;99.90
27026;DHT22;14565;48.626;8.978;2023-05-10T06:57:53;13.30;99.90
27026;DHT22;14565;48.626;8.978;2023-05-10T07:00:19;13.30;99.90
27026;DHT22;14565;48.626;8.978;2023-05-10T07:02:46;13.20;99.90
27026;DHT22;14565;48.626;8.978;2023-05-10T07:05:12;13.30;99.90
27026;DHT22;14565;48.626;8.978;2023-05-10T07:07:38;13.30;99.90
27026;DHT22;14565;48.626;8.978;2023-05-10T07:10:04;13.10;99.90
27026;DHT22;14565;48.626;8.978;2023-05-10T07:12:30;13.30;99.90
27026;DHT22;14565;48.626;8.978;2023-05-10T07:14:56;13.50;99.90
27026;DHT22;14565;48.626;8.978;2023-05-10T07:17:22;13.50;99.90
27026;DHT22;14565;48.626;8.978;2023-05-10T07:19:48;13.40;99.90
27026;DHT22;14565;48.626;8.978;2023-05-10T07:22:14;13.50;99.90
27026;DHT22;14565;48.626;8.978;2023-05-10T07:24:40;13.70;99.90
27026;DHT22;14565;48.626;8.978;2023-05-10T07:27:06;13.60;99.90
27026;DHT22;14565;48.626;8.978;2023-05-10T07:29:32;13.40;99.90
27026;DHT22;14565;48.626;8.978;2023-05-10T07:31:58;13.40;99.90
27026;DHT22;14565;48.626;8.978;2023-05-10T07:34:24;13.50;99.90
27026;DHT22;14565;48.626;8.978;2023-05-10T07:36:49;13.60;99.90
27026;DHT22;14565;48.626;8.978;2023-05-10T07:39:15;13.60;99.90
27026;DHT22;14565;48.626;8.978;2023-05-10T07:41:42;13.80;99.90
27026;DHT22;14565;48.626;8.978;2023-05-10T07:44:07;13.90;99.90
27026;DHT22;14565;48.626;8.978;2023-05-10T07:46:33;13.70;99.90
27026;DHT22;14565;48.626;8.978;2023-05-10T07:48:58;13.90;99.90
27026;DHT22;14565;48.626;8.978;2023-05-10T07:51:24;14.20;99.90
27026;DHT22;14565;48.626;8.978;2023-05-10T07:53:50;14.10;99.90
27026;DHT22;14565;48.626;8.978;2023-05-10T07:58:47;14.40;99.90
27026;DHT22;14565;48.626;8.978;2023-05-10T08:01:13;14.30;99.90
27026;DHT22;14565;48.626;8.978;2023-05-10T08:03:39;14.30;99.90
27026;DHT22;14565;48.626;8.978;2023-05-10T08:06:05;14.40;99.90
27026;DHT22;14565;48.626;8.978;2023-05-10T08:08:31;14.40;99.90
27026;DHT22;14565;48.626;8.978;2023-05-10T08:10:57;14.10;99.90
27026;DHT22;14565;48.626;8.978;2023-05-10T08:13:22;14.10;99.90
27026;DHT22;14565;48.626;8.978;2023-05-10T08:15:48;14.40;99.90
27026;DHT22;14565;48.626;8.978;2023-05-10T08:18:18;14.80;99.90
27026;DHT22;14565;48.626;8.978;2023-05-10T08:20:44;15.30;99.90
27026;DHT22;14565;48.626;8.978;2023-05-10T08:23:13;15.10;99.90
27026;DHT22;14565;48.626;8.978;2023-05-10T08:25:38;15.10;99.90
27026;DHT22;14565;48.626;8.978;2023-05-10T08:28:07;15.20;99.90
27026;DHT22;14565;48.626;8.978;2023-05-10T08:30:32;14.80;99.90
27026;DHT22;14565;48.626;8.978;2023-05-10T08:32:58;14.80;99.90
27026;DHT22;14565;48.626;8.978;2023-05-10T08:35:23;14.60;99.90
27026;DHT22;14565;48.626;8.978;2023-05-10T08:37:50;14.60;99.90
27026;DHT22;14565;48.626;8.978;2023-05-10T08:40:19;14.60;99.90
27026;DHT22;14565;48.626;8.978;2023-05-10T08:42:51;14.70;99.90
27026;DHT22;14565;48.626;8.978;2023-05-10T08:45:19;14.70;99.90
27026;DHT22;14565;48.626;8.978;2023-05-10T08:47:45;14.80;99.90
27026;DHT22;14565;48.626;8.978;2023-05-10T08:50:11;15.50;99.90
27026;DHT22;14565;48.626;8.978;2023-05-10T08:52:38;15.50;99.90
27026;DHT22;14565;48.626;8.978;2023-05-10T08:55:05;15.30;99.90
27026;DHT22;14565;48.626;8.978;2023-05-10T08:57:31;15.40;99.90
27026;DHT22;14565;48.626;8.978;2023-05-10T08:59:58;15.30;99.90
27026;DHT22;14565;48.626;8.978;2023-05-10T09:02:25;15.50;99.90
27026;DHT22;14565;48.626;8.978;2023-05-10T09:04:51;15.30;99.90
27026;DHT22;14565;48.626;8.978;2023-05-10T09:07:17;15.30;99.90
27026;DHT22;14565;48.626;8.978;2023-05-10T09:09:45;14.90;99.90
27026;DHT22;14565;48.626;8.978;2023-05-10T09:12:13;14.80;99.90
27026;DHT22;14565;48.626;8.978;2023-05-10T09:14:41;14.80;99.90
27026;DHT22;14565;48.626;8.978;2023-05-10T09:17:10;15.10;99.90
27026;DHT22;14565;48.626;8.978;2023-05-10T09:19:35;15.50;99.90
27026;DHT22;14565;48.626;8.978;2023-05-10T09:22:03;15.80;99.90
27026;DHT22;14565;48.626;8.978;2023-05-10T09:24:30;15.80;99.90
27026;DHT22;14565;48.626;8.978;2023-05-10T09:26:57;15.90;99.90
27026;DHT22;14565;48.626;8.978;2023-05-10T09:29:23;16.30;99.90
27026;DHT22;14565;48.626;8.978;2023-05-10T09:31:51;16.20;99.90
27026;DHT22;14565;48.626;8.978;2023-05-10T09:34:20;16.30;99.90
27026;DHT22;14565;48.626;8.978;2023-05-10T09:36:54;16.30;99.90
27026;DHT22;14565;48.626;8.978;2023-05-10T09:39:30;16.00;99.90
27026;DHT22;14565;48.626;8.978;2023-05-10T09:41:56;15.90;99.90
27026;DHT22;14565;48.626;8.978;2023-05-10T09:44:25;15.70;99.90
27026;DHT22;14565;48.626;8.978;2023-05-10T09:46:51;15.70;99.90
27026;DHT22;14565;48.626;8.978;2023-05-10T09:49:19;15.70;99.90
27026;DHT22;14565;48.626;8.978;2023-05-10T09:51:45;15.20;99.90
27026;DHT22;14565;48.626;8.978;2023-05-10T09:54:15;15.40;99.90
27026;DHT22;14565;48.626;8.978;2023-05-10T09:56:42;15.40;99.90
27026;DHT22;14565;48.626;8.978;2023-05-10T09:59:11;15.90;99.90
27026;DHT22;14565;48.626;8.978;2023-05-10T10:01:38;16.00;99.90
27026;DHT22;14565;48.626;8.978;2023-05-10T10:04:09;16.10;99.90
27026;DHT22;14565;48.626;8.978;2023-05-10T10:06:39;15.90;99.90
27026;DHT22;14565;48.626;8.978;2023-05-10T10:09:08;16.60;99.90
27026;DHT22;14565;48.626;8.978;2023-05-10T10:11:35;16.20;99.90
27026;DHT22;14565;48.626;8.978;2023-05-10T10:14:02;17.00;99.90
27026;DHT22;14565;48.626;8.978;2023-05-10T10:16:32;17.30;99.90
27026;DHT22;14565;48.626;8.978;2023-05-10T10:18:58;17.60;99.90
27026;DHT22;14565;48.626;8.978;2023-05-10T10:21:24;17.80;99.90
27026;DHT22;14565;48.626;8.978;2023-05-10T10:23:51;17.30;99.90
27026;DHT22;14565;48.626;8.978;2023-05-10T10:26:17;17.30;99.90
27026;DHT22;14565;48.626;8.978;2023-05-10T10:29:16;17.30;99.90
27026;DHT22;14565;48.626;8.978;2023-05-10T10:35:06;17.50;99.90
27026;DHT22;14565;48.626;8.978;2023-05-10T10:37:47;17.10;99.90
27026;DHT22;14565;48.626;8.978;2023-05-10T10:40:27;16.90;99.90
27026;DHT22;14565;48.626;8.978;2023-05-10T10:42:54;15.80;99.90
27026;DHT22;14565;48.626;8.978;2023-05-10T10:45:20;14.90;99.90
27026;DHT22;14565;48.626;8.978;2023-05-10T10:47:46;14.40;99.90
27026;DHT22;14565;48.626;8.978;2023-05-10T10:50:12;14.10;99.90
27026;DHT22;14565;48.626;8.978;2023-05-10T10:52:44;13.70;99.90
27026;DHT22;14565;48.626;8.978;2023-05-10T11:08:26;13.70;99.90
27026;DHT22;14565;48.626;8.978;2023-05-10T11:11:03;13.70;99.90
27026;DHT22;14565;48.626;8.978;2023-05-10T11:15:56;13.60;99.90
27026;DHT22;14565;48.626;8.978;2023-05-10T11:18:24;13.70;99.90
27026;DHT22;14565;48.626;8.978;2023-05-10T11:21:00;14.30;99.90
27026;DHT22;14565;48.626;8.978;2023-05-10T11:23:52;14.50;99.90
27026;DHT22;14565;48.626;8.978;2023-05-10T11:26:21;15.10;99.90
27026;DHT22;14565;48.626;8.978;2023-05-10T11:28:50;15.10;99.90
27026;DHT22;14565;48.626;8.978;2023-05-10T11:31:17;15.30;99.90
27026;DHT22;14565;48.626;8.978;2023-05-10T11:36:18;15.50;99.90
27026;DHT22;14565;48.626;8.978;2023-05-10T11:38:47;15.90;99.90
27026;DHT22;14565;48.626;8.978;2023-05-10T11:41:16;15.80;99.90
27026;DHT22;14565;48.626;8.978;2023-05-10T11:43:46;16.00;99.90
27026;DHT22;14565;48.626;8.978;2023-05-10T11:46:14;16.20;99.90
27026;DHT22;14565;48.626;8.978;2023-05-10T11:48:41;16.40;99.90
27026;DHT22;14565;48.626;8.978;2023-05-10T11:51:14;16.20;99.90
27026;DHT22;14565;48.626;8.978;2023-05-10T11:53:42;16.40;99.90
27026;DHT22;14565;48.626;8.978;2023-05-10T11:56:10;16.60;99.90
27026;DHT22;14565;48.626;8.978;2023-05-10T11:58:38;16.50;99.90
27026;DHT22;14565;48.626;8.978;2023-05-10T12:01:05;16.20;99.90
27026;DHT22;14565;48.626;8.978;2023-05-10T12:03:31;16.00;99.90
27026;DHT22;14565;48.626;8.978;2023-05-10T12:05:57;16.20;99.90
27026;DHT22;14565;48.626;8.978;2023-05-10T12:08:25;16.40;99.90
27026;DHT22;14565;48.626;8.978;2023-05-10T12:10:51;16.20;99.90
27026;DHT22;14565;48.626;8.978;2023-05-10T12:13:18;16.00;99.90
27026;DHT22;14565;48.626;8.978;2023-05-10T12:15:44;15.70;99.90
27026;DHT22;14565;48.626;8.978;2023-05-10T12:18:11;15.50;99.90
27026;DHT22;14565;48.626;8.978;2023-05-10T12:20:37;15.30;99.90
27026;DHT22;14565;48.626;8.978;2023-05-10T12:23:04;15.30;99.90
27026;DHT22;14565;48.626;8.978;2023-05-10T12:25:37;15.20;99.90
27026;DHT22;14565;48.626;8.978;2023-05-10T12:28:04;15.20;99.90
27026;DHT22;14565;48.626;8.978;2023-05-10T12:30:33;15.20;99.90
27026;DHT22;14565;48.626;8.978;2023-05-10T12:33:07;15.60;99.90
27026;DHT22;14565;48.626;8.978;2023-05-10T12:35:33;15.80;99.90
27026;DHT22;14565;48.626;8.978;2023-05-10T12:37:59;15.70;99.90
27026;DHT22;14565;48.626;8.978;2023-05-10T12:40:25;16.10;99.90
27026;DHT22;14565;48.626;8.978;2023-05-10T12:42:51;16.40;99.90
27026;DHT22;14565;48.626;8.978;2023-05-10T12:45:18;16.50;99.90
27026;DHT22;14565;48.626;8.978;2023-05-10T12:47:44;16.60;99.90
27026;DHT22;14565;48.626;8.978;2023-05-10T12:50:10;16.50;99.90
27026;DHT22;14565;48.626;8.978;2023-05-10T12:52:36;16.50;99.90
27026;DHT22;14565;48.626;8.978;2023-05-10T12:55:02;16.70;99.90
27026;DHT22;14565;48.626;8.978;2023-05-10T12:57:28;16.70;99.90
27026;DHT22;14565;48.626;8.978;2023-05-10T12:59:54;16.10;99.90
27026;DHT22;14565;48.626;8.978;2023-05-10T13:02:20;16.00;99.90
27026;DHT22;14565;48.626;8.978;2023-05-10T13:04:47;16.20;99.90
27026;DHT22;14565;48.626;8.978;2023-05-10T13:07:13;15.90;99.90
27026;DHT22;14565;48.626;8.978;2023-05-10T13:09:39;16.00;99.90
27026;DHT22;14565;48.626;8.978;2023-05-10T13:12:05;16.30;99.90
27026;DHT22;14565;48.626;8.978;2023-05-10T13:14:31;16.50;99.90
27026;DHT22;14565;48.626;8.978;2023-05-10T13:16:56;16.60;99.90
27026;DHT22;14565;48.626;8.978;2023-05-10T13:19:22;16.30;99.90
27026;DHT22;14565;48.626;8.978;2023-05-10T13:21:48;16.20;99.90
27026;DHT22;14565;48.626;8.978;2023-05-10T13:24:13;16.00;99.90
27026;DHT22;14565;48.626;8.978;2023-05-10T13:26:43;16.20;99.90
27026;DHT22;14565;48.626;8.978;2023-05-10T13:29:09;16.30;99.90
27026;DHT22;14565;48.626;8.978;2023-05-10T13:31:35;15.90;99.90
27026;DHT22;14565;48.626;8.978;2023-05-10T13:34:01;16.30;99.90
27026;DHT22;14565;48.626;8.978;2023-05-10T13:36:28;16.20;99.90
27026;DHT22;14565;48.626;8.978;2023-05-10T13:38:53;16.50;99.90
27026;DHT22;14565;48.626;8.978;2023-05-10T13:41:19;16.80;99.90
27026;DHT22;14565;48.626;8.978;2023-05-10T13:43:44;16.90;99.90
27026;DHT22;14565;48.626;8.978;2023-05-10T13:46:10;17.00;99.90
27026;DHT22;14565;48.626;8.978;2023-05-10T13:48:36;16.90;99.90
27026;DHT22;14565;48.626;8.978;2023-05-10T13:51:04;16.50;99.90
27026;DHT22;14565;48.626;8.978;2023-05-10T13:53:31;16.70;99.90
27026;DHT22;14565;48.626;8.978;2023-05-10T13:55:56;16.30;99.90
27026;DHT22;14565;48.626;8.978;2023-05-10T13:58:22;16.70;99.90
27026;DHT22;14565;48.626;8.978;2023-05-10T14:00:48;16.60;99.90
27026;DHT22;14565;48.626;8.978;2023-05-10T14:03:14;16.70;99.90
27026;DHT22;14565;48.626;8.978;2023-05-10T14:05:40;16.80;99.90
27026;DHT22;14565;48.626;8.978;2023-05-10T14:08:05;17.10;99.90
27026;DHT22;14565;48.626;8.978;2023-05-10T14:10:31;17.10;99.90
27026;DHT22;14565;48.626;8.978;2023-05-10T14:12:57;16.80;99.90
27026;DHT22;14565;48.626;8.978;2023-05-10T14:15:22;17.30;99.90
27026;DHT22;14565;48.626;8.978;2023-05-10T14:17:48;17.00;99.90
27026;DHT22;14565;48.626;8.978;2023-05-10T14:20:14;16.60;99.90
27026;DHT22;14565;48.626;8.978;2023-05-10T14:22:39;17.00;99.90
27026;DHT22;14565;48.626;8.978;2023-05-10T14:25:05;17.00;99.90
27026;DHT22;14565;48.626;8.978;2023-05-10T14:27:32;16.80;99.90
27026;DHT22;14565;48.626;8.978;2023-05-10T14:29:57;16.70;99.90
27026;DHT22;14565;48.626;8.978;2023-05-10T14:32:23;16.70;99.90
27026;DHT22;14565;48.626;8.978;2023-05-10T14:34:49;16.80;99.90
27026;DHT22;14565;48.626;8.978;2023-05-10T14:37:15;16.70;99.90
27026;DHT22;14565;48.626;8.978;2023-05-10T14:39:40;17.00;99.90
27026;DHT22;14565;48.626;8.978;2023-05-10T14:42:07;16.70;99.90
27026;DHT22;14565;48.626;8.978;2023-05-10T14:44:33;16.60;99.90
27026;DHT22;14565;48.626;8.978;2023-05-10T14:46:58;16.80;99.90
27026;DHT22;14565;48.626;8.978;2023-05-10T14:49:25;16.70;99.90
27026;DHT22;14565;48.626;8.978;2023-05-10T14:51:51;16.60;99.90
27026;DHT22;14565;48.626;8.978;2023-05-10T14:54:17;16.70;99.90
27026;DHT22;14565;48.626;8.978;2023-05-10T14:56:43;17.00;99.90
27026;DHT22;14565;48.626;8.978;2023-05-10T14:59:09;16.90;99.90
27026;DHT22;14565;48.626;8.978;2023-05-10T15:01:34;17.00;99.90
27026;DHT22;14565;48.626;8.978;2023-05-10T15:04:03;16.80;99.90
27026;DHT22;14565;48.626;8.978;2023-05-10T15:06:33;16.70;99.90
27026;DHT22;14565;48.626;8.978;2023-05-10T15:08:59;16.60;99.90
27026;DHT22;14565;48.626;8.978;2023-05-10T15:11:26;16.50;99.90
27026;DHT22;14565;48.626;8.978;2023-05-10T15:13:51;16.60;99.90
27026;DHT22;14565;48.626;8.978;2023-05-10T15:16:17;16.30;99.90
27026;DHT22;14565;48.626;8.978;2023-05-10T15:18:43;16.30;99.90
27026;DHT22;14565;48.626;8.978;2023-05-10T15:21:09;16.10;99.90
27026;DHT22;14565;48.626;8.978;2023-05-10T15:23:35;16.00;99.90
27026;DHT22;14565;48.626;8.978;2023-05-10T15:26:01;16.00;99.90
27026;DHT22;14565;48.626;8.978;2023-05-10T15:28:28;16.20;99.90
27026;DHT22;14565;48.626;8.978;2023-05-10T15:30:54;16.50;99.90
27026;DHT22;14565;48.626;8.978;2023-05-10T15:33:20;17.00;99.90
27026;DHT22;14565;48.626;8.978;2023-05-10T15:35:45;16.80;99.90
27026;DHT22;14565;48.626;8.978;2023-05-10T15:38:11;16.80;99.90
27026;DHT22;14565;48.626;8.978;2023-05-10T15:40:36;16.80;99.90
27026;DHT22;14565;48.626;8.978;2023-05-10T15:43:02;16.70;99.90
27026;DHT22;14565;48.626;8.978;2023-05-10T15:45:28;16.70;99.90
27026;DHT22;14565;48.626;8.978;2023-05-10T15:47:53;16.60;99.90
27026;DHT22;14565;48.626;8.978;2023-05-10T15:50:19;16.90;99.90
27026;DHT22;14565;48.626;8.978;2023-05-10T15:52:45;16.70;99.90
27026;DHT22;14565;48.626;8.978;2023-05-10T15:55:11;16.70;99.90
27026;DHT22;14565;48.626;8.978;2023-05-10T15:57:41;16.30;99.90
27026;DHT22;14565;48.626;8.978;2023-05-10T16:00:08;16.70;99.90
27026;DHT22;14565;48.626;8.978;2023-05-10T16:02:34;16.70;99.90
27026;DHT22;14565;48.626;8.978;2023-05-10T16:05:00;16.90;99.90
27026;DHT22;14565;48.626;8.978;2023-05-10T16:07:25;16.60;99.90
27026;DHT22;14565;48.626;8.978;2023-05-10T16:09:51;16.50;99.90
27026;DHT22;14565;48.626;8.978;2023-05-10T16:12:17;16.30;99.90
27026;DHT22;14565;48.626;8.978;2023-05-10T16:14:43;16.20;99.90
27026;DHT22;14565;48.626;8.978;2023-05-10T16:17:08;16.50;99.90